sensor_id;sensor_type;location;lat;lon;timestamp;P1;durP1;ratioP1;P2;durP2;ratioP2
29824;SDS011;16713;52.916;12.834;2023-03-30T00:00:24;16.98;;;9.75;;
29824;SDS011;16713;52.916;12.834;2023-03-30T00:02:51;11.93;;;9.25;;
29824;SDS011;16713;52.916;12.834;2023-03-30T00:05:19;14.07;;;9.02;;
29824;SDS011;16713;52.916;12.834;2023-03-30T00:07:45;14.50;;;9.00;;
29824;SDS011;16713;52.916;12.834;2023-03-30T00:10:13;14.63;;;9.35;;
29824;SDS011;16713;52.916;12.834;2023-03-30T00:12:43;16.92;;;9.63;;
29824;SDS011;16713;52.916;12.834;2023-03-30T00:15:13;12.88;;;8.68;;
29824;SDS011;16713;52.916;12.834;2023-03-30T00:17:41;16.38;;;9.55;;
29824;SDS011;16713;52.916;12.834;2023-03-30T00:20:08;13.60;;;9.32;;
29824;SDS011;16713;52.916;12.834;2023-03-30T00:22:37;12.18;;;9.18;;
29824;SDS011;16713;52.916;12.834;2023-03-30T00:25:05;13.90;;;9.10;;
29824;SDS011;16713;52.916;12.834;2023-03-30T00:27:34;12.50;;;8.35;;
29824;SDS011;16713;52.916;12.834;2023-03-30T00:30:05;11.38;;;8.35;;
29824;SDS011;16713;52.916;12.834;2023-03-30T00:32:34;13.35;;;8.82;;
29824;SDS011;16713;52.916;12.834;2023-03-30T00:35:01;15.52;;;8.48;;
29824;SDS011;16713;52.916;12.834;2023-03-30T00:37:27;14.52;;;9.00;;
29824;SDS011;16713;52.916;12.834;2023-03-30T00:39:54;13.63;;;9.90;;
29824;SDS011;16713;52.916;12.834;2023-03-30T00:42:21;13.90;;;8.57;;
29824;SDS011;16713;52.916;12.834;2023-03-30T00:48:10;12.20;;;8.18;;
29824;SDS011;16713;52.916;12.834;2023-03-30T00:50:38;13.63;;;8.75;;
29824;SDS011;16713;52.916;12.834;2023-03-30T00:53:12;15.20;;;9.20;;
29824;SDS011;16713;52.916;12.834;2023-03-30T00:55:43;14.40;;;8.80;;
29824;SDS011;16713;52.916;12.834;2023-03-30T00:58:11;12.52;;;8.73;;
29824;SDS011;16713;52.916;12.834;2023-03-30T01:00:41;18.27;;;9.25;;
29824;SDS011;16713;52.916;12.834;2023-03-30T01:03:14;12.95;;;8.73;;
29824;SDS011;16713;52.916;12.834;2023-03-30T01:05:50;14.18;;;8.45;;
29824;SDS011;16713;52.916;12.834;2023-03-30T01:08:18;10.30;;;7.38;;
29824;SDS011;16713;52.916;12.834;2023-03-30T01:10:45;13.40;;;8.23;;
29824;SDS011;16713;52.916;12.834;2023-03-30T01:13:12;10.55;;;8.15;;
29824;SDS011;16713;52.916;12.834;2023-03-30T01:15:50;14.35;;;8.68;;
29824;SDS011;16713;52.916;12.834;2023-03-30T01:18:28;11.68;;;8.40;;
29824;SDS011;16713;52.916;12.834;2023-03-30T01:21:16;12.10;;;7.55;;
29824;SDS011;16713;52.916;12.834;2023-03-30T01:26:48;15.80;;;8.93;;
29824;SDS011;16713;52.916;12.834;2023-03-30T01:32:21;12.27;;;7.88;;
29824;SDS011;16713;52.916;12.834;2023-03-30T01:46:06;14.20;;;7.95;;
29824;SDS011;16713;52.916;12.834;2023-03-30T01:48:43;12.40;;;8.55;;
29824;SDS011;16713;52.916;12.834;2023-03-30T01:51:18;11.63;;;7.75;;
29824;SDS011;16713;52.916;12.834;2023-03-30T01:53:52;17.13;;;8.40;;
29824;SDS011;16713;52.916;12.834;2023-03-30T01:56:32;10.80;;;7.53;;
29824;SDS011;16713;52.916;12.834;2023-03-30T01:59:29;12.32;;;7.60;;
29824;SDS011;16713;52.916;12.834;2023-03-30T02:02:19;10.32;;;7.63;;
29824;SDS011;16713;52.916;12.834;2023-03-30T02:04:47;14.35;;;8.30;;
29824;SDS011;16713;52.916;12.834;2023-03-30T02:07:21;14.68;;;8.70;;
29824;SDS011;16713;52.916;12.834;2023-03-30T02:09:49;12.48;;;8.63;;
29824;SDS011;16713;52.916;12.834;2023-03-30T02:12:20;11.77;;;8.65;;
29824;SDS011;16713;52.916;12.834;2023-03-30T02:14:48;10.52;;;8.00;;
29824;SDS011;16713;52.916;12.834;2023-03-30T02:17:19;10.95;;;8.20;;
29824;SDS011;16713;52.916;12.834;2023-03-30T02:19:48;11.02;;;7.95;;
29824;SDS011;16713;52.916;12.834;2023-03-30T02:22:15;11.13;;;7.88;;
29824;SDS011;16713;52.916;12.834;2023-03-30T02:24:43;10.98;;;7.82;;
29824;SDS011;16713;52.916;12.834;2023-03-30T02:27:13;12.40;;;8.00;;
29824;SDS011;16713;52.916;12.834;2023-03-30T02:29:41;15.90;;;8.05;;
29824;SDS011;16713;52.916;12.834;2023-03-30T02:32:17;17.42;;;8.48;;
29824;SDS011;16713;52.916;12.834;2023-03-30T02:35:13;15.73;;;9.13;;
29824;SDS011;16713;52.916;12.834;2023-03-30T02:46:52;12.20;;;8.85;;
29824;SDS011;16713;52.916;12.834;2023-03-30T02:49:36;10.07;;;8.10;;
29824;SDS011;16713;52.916;12.834;2023-03-30T02:52:07;12.43;;;8.25;;
29824;SDS011;16713;52.916;12.834;2023-03-30T02:55:03;17.02;;;9.00;;
29824;SDS011;16713;52.916;12.834;2023-03-30T03:00:25;12.18;;;8.60;;
29824;SDS011;16713;52.916;12.834;2023-03-30T03:02:56;12.65;;;8.52;;
29824;SDS011;16713;52.916;12.834;2023-03-30T03:05:25;16.52;;;9.73;;
29824;SDS011;16713;52.916;12.834;2023-03-30T03:07:53;10.60;;;8.07;;
29824;SDS011;16713;52.916;12.834;2023-03-30T03:10:20;12.15;;;8.48;;
29824;SDS011;16713;52.916;12.834;2023-03-30T03:12:46;13.38;;;8.85;;
29824;SDS011;16713;52.916;12.834;2023-03-30T03:15:13;15.45;;;9.52;;
29824;SDS011;16713;52.916;12.834;2023-03-30T03:17:41;10.30;;;8.35;;
29824;SDS011;16713;52.916;12.834;2023-03-30T03:20:10;11.52;;;8.90;;
29824;SDS011;16713;52.916;12.834;2023-03-30T03:22:36;15.95;;;8.45;;
29824;SDS011;16713;52.916;12.834;2023-03-30T03:25:03;12.95;;;8.75;;
29824;SDS011;16713;52.916;12.834;2023-03-30T03:27:30;13.15;;;8.50;;
29824;SDS011;16713;52.916;12.834;2023-03-30T03:29:57;13.30;;;8.98;;
29824;SDS011;16713;52.916;12.834;2023-03-30T03:32:23;11.70;;;8.07;;
29824;SDS011;16713;52.916;12.834;2023-03-30T03:34:50;13.60;;;9.07;;
29824;SDS011;16713;52.916;12.834;2023-03-30T03:37:17;11.52;;;7.85;;
29824;SDS011;16713;52.916;12.834;2023-03-30T03:39:43;14.93;;;9.05;;
29824;SDS011;16713;52.916;12.834;2023-03-30T03:42:09;13.77;;;9.23;;
29824;SDS011;16713;52.916;12.834;2023-03-30T03:44:36;14.57;;;9.43;;
29824;SDS011;16713;52.916;12.834;2023-03-30T03:47:03;13.25;;;8.50;;
29824;SDS011;16713;52.916;12.834;2023-03-30T03:49:30;12.30;;;8.32;;
29824;SDS011;16713;52.916;12.834;2023-03-30T03:51:56;11.63;;;8.82;;
29824;SDS011;16713;52.916;12.834;2023-03-30T03:54:23;13.73;;;9.40;;
29824;SDS011;16713;52.916;12.834;2023-03-30T03:56:49;15.25;;;8.85;;
29824;SDS011;16713;52.916;12.834;2023-03-30T03:59:17;14.00;;;9.68;;
29824;SDS011;16713;52.916;12.834;2023-03-30T04:01:43;16.27;;;9.40;;
29824;SDS011;16713;52.916;12.834;2023-03-30T04:04:09;13.25;;;8.93;;
29824;SDS011;16713;52.916;12.834;2023-03-30T04:06:36;13.38;;;9.90;;
29824;SDS011;16713;52.916;12.834;2023-03-30T04:09:03;13.27;;;9.05;;
29824;SDS011;16713;52.916;12.834;2023-03-30T04:11:29;14.93;;;8.95;;
29824;SDS011;16713;52.916;12.834;2023-03-30T04:13:56;12.10;;;9.38;;
29824;SDS011;16713;52.916;12.834;2023-03-30T04:16:22;12.05;;;9.38;;
29824;SDS011;16713;52.916;12.834;2023-03-30T04:18:49;14.65;;;9.32;;
29824;SDS011;16713;52.916;12.834;2023-03-30T04:21:15;12.68;;;8.82;;
29824;SDS011;16713;52.916;12.834;2023-03-30T04:23:42;16.98;;;10.27;;
29824;SDS011;16713;52.916;12.834;2023-03-30T04:26:14;15.38;;;10.25;;
29824;SDS011;16713;52.916;12.834;2023-03-30T04:28:40;15.90;;;9.95;;
29824;SDS011;16713;52.916;12.834;2023-03-30T04:31:07;12.05;;;9.45;;
29824;SDS011;16713;52.916;12.834;2023-03-30T04:33:36;14.98;;;9.57;;
29824;SDS011;16713;52.916;12.834;2023-03-30T04:36:04;13.65;;;9.38;;
29824;SDS011;16713;52.916;12.834;2023-03-30T04:38:30;11.68;;;9.45;;
29824;SDS011;16713;52.916;12.834;2023-03-30T04:40:58;15.98;;;9.50;;
29824;SDS011;16713;52.916;12.834;2023-03-30T04:43:25;13.88;;;9.65;;
29824;SDS011;16713;52.916;12.834;2023-03-30T04:45:52;13.57;;;9.13;;
29824;SDS011;16713;52.916;12.834;2023-03-30T04:48:21;12.82;;;9.55;;
29824;SDS011;16713;52.916;12.834;2023-03-30T04:50:49;13.68;;;9.82;;
29824;SDS011;16713;52.916;12.834;2023-03-30T04:53:16;18.80;;;9.55;;
29824;SDS011;16713;52.916;12.834;2023-03-30T04:55:47;14.00;;;9.45;;
29824;SDS011;16713;52.916;12.834;2023-03-30T04:58:14;11.27;;;9.20;;
29824;SDS011;16713;52.916;12.834;2023-03-30T05:00:42;16.08;;;10.25;;
29824;SDS011;16713;52.916;12.834;2023-03-30T05:03:08;14.48;;;9.68;;
29824;SDS011;16713;52.916;12.834;2023-03-30T05:05:35;13.88;;;10.05;;
29824;SDS011;16713;52.916;12.834;2023-03-30T05:08:02;14.57;;;9.70;;
29824;SDS011;16713;52.916;12.834;2023-03-30T05:10:29;16.73;;;10.65;;
29824;SDS011;16713;52.916;12.834;2023-03-30T05:12:56;15.82;;;10.02;;
29824;SDS011;16713;52.916;12.834;2023-03-30T05:15:23;17.15;;;11.70;;
29824;SDS011;16713;52.916;12.834;2023-03-30T05:17:49;14.00;;;10.73;;
29824;SDS011;16713;52.916;12.834;2023-03-30T05:20:16;19.85;;;12.98;;
29824;SDS011;16713;52.916;12.834;2023-03-30T05:22:43;17.67;;;10.40;;
29824;SDS011;16713;52.916;12.834;2023-03-30T05:25:11;14.32;;;10.48;;
29824;SDS011;16713;52.916;12.834;2023-03-30T05:27:38;17.55;;;10.48;;
29824;SDS011;16713;52.916;12.834;2023-03-30T05:30:05;16.05;;;10.07;;
29824;SDS011;16713;52.916;12.834;2023-03-30T05:32:33;14.25;;;10.05;;
29824;SDS011;16713;52.916;12.834;2023-03-30T05:34:59;17.02;;;11.15;;
29824;SDS011;16713;52.916;12.834;2023-03-30T05:37:26;15.27;;;9.27;;
29824;SDS011;16713;52.916;12.834;2023-03-30T05:39:52;12.45;;;9.70;;
29824;SDS011;16713;52.916;12.834;2023-03-30T05:42:19;16.73;;;9.55;;
29824;SDS011;16713;52.916;12.834;2023-03-30T05:44:46;13.98;;;9.75;;
29824;SDS011;16713;52.916;12.834;2023-03-30T05:47:13;11.55;;;8.52;;
29824;SDS011;16713;52.916;12.834;2023-03-30T05:49:39;12.07;;;9.13;;
29824;SDS011;16713;52.916;12.834;2023-03-30T05:52:06;10.88;;;8.93;;
29824;SDS011;16713;52.916;12.834;2023-03-30T05:54:32;17.27;;;8.95;;
29824;SDS011;16713;52.916;12.834;2023-03-30T05:56:58;17.10;;;9.98;;
29824;SDS011;16713;52.916;12.834;2023-03-30T05:59:25;11.68;;;8.50;;
29824;SDS011;16713;52.916;12.834;2023-03-30T06:01:52;11.55;;;9.35;;
29824;SDS011;16713;52.916;12.834;2023-03-30T06:04:19;12.52;;;8.52;;
29824;SDS011;16713;52.916;12.834;2023-03-30T06:06:45;13.25;;;7.57;;
29824;SDS011;16713;52.916;12.834;2023-03-30T06:09:12;11.75;;;7.35;;
29824;SDS011;16713;52.916;12.834;2023-03-30T06:11:38;10.65;;;7.75;;
29824;SDS011;16713;52.916;12.834;2023-03-30T06:14:05;10.55;;;8.00;;
29824;SDS011;16713;52.916;12.834;2023-03-30T06:16:31;11.45;;;7.60;;
29824;SDS011;16713;52.916;12.834;2023-03-30T06:18:58;10.73;;;7.55;;
29824;SDS011;16713;52.916;12.834;2023-03-30T06:21:24;12.15;;;6.88;;
29824;SDS011;16713;52.916;12.834;2023-03-30T06:23:51;12.38;;;8.60;;
29824;SDS011;16713;52.916;12.834;2023-03-30T06:26:17;17.25;;;8.40;;
29824;SDS011;16713;52.916;12.834;2023-03-30T06:28:44;12.43;;;8.77;;
29824;SDS011;16713;52.916;12.834;2023-03-30T06:31:10;16.00;;;7.45;;
29824;SDS011;16713;52.916;12.834;2023-03-30T06:33:37;11.55;;;7.35;;
29824;SDS011;16713;52.916;12.834;2023-03-30T06:36:10;11.52;;;7.85;;
29824;SDS011;16713;52.916;12.834;2023-03-30T06:38:38;14.80;;;7.38;;
29824;SDS011;16713;52.916;12.834;2023-03-30T06:41:06;9.07;;;7.10;;
29824;SDS011;16713;52.916;12.834;2023-03-30T06:43:35;10.00;;;6.90;;
29824;SDS011;16713;52.916;12.834;2023-03-30T06:46:02;11.38;;;6.20;;
29824;SDS011;16713;52.916;12.834;2023-03-30T06:48:29;13.02;;;7.07;;
29824;SDS011;16713;52.916;12.834;2023-03-30T06:50:56;9.63;;;6.20;;
29824;SDS011;16713;52.916;12.834;2023-03-30T06:53:23;10.50;;;6.95;;
29824;SDS011;16713;52.916;12.834;2023-03-30T06:55:50;12.75;;;7.20;;
29824;SDS011;16713;52.916;12.834;2023-03-30T06:58:18;13.73;;;8.43;;
29824;SDS011;16713;52.916;12.834;2023-03-30T07:00:45;13.75;;;8.68;;
29824;SDS011;16713;52.916;12.834;2023-03-30T07:03:12;17.13;;;10.43;;
29824;SDS011;16713;52.916;12.834;2023-03-30T07:05:38;16.05;;;10.25;;
29824;SDS011;16713;52.916;12.834;2023-03-30T07:08:05;12.77;;;7.70;;
29824;SDS011;16713;52.916;12.834;2023-03-30T07:10:32;10.82;;;7.53;;
29824;SDS011;16713;52.916;12.834;2023-03-30T07:12:59;12.10;;;7.15;;
29824;SDS011;16713;52.916;12.834;2023-03-30T07:15:25;10.88;;;7.60;;
29824;SDS011;16713;52.916;12.834;2023-03-30T07:17:52;8.30;;;6.95;;
29824;SDS011;16713;52.916;12.834;2023-03-30T07:20:19;13.90;;;7.22;;
29824;SDS011;16713;52.916;12.834;2023-03-30T07:22:45;12.10;;;6.88;;
29824;SDS011;16713;52.916;12.834;2023-03-30T07:25:12;12.02;;;6.60;;
29824;SDS011;16713;52.916;12.834;2023-03-30T07:27:38;10.77;;;6.75;;
29824;SDS011;16713;52.916;12.834;2023-03-30T07:30:06;16.63;;;7.82;;
29824;SDS011;16713;52.916;12.834;2023-03-30T07:32:47;9.60;;;6.93;;
29824;SDS011;16713;52.916;12.834;2023-03-30T07:35:16;11.07;;;5.88;;
29824;SDS011;16713;52.916;12.834;2023-03-30T07:37:43;13.32;;;6.38;;
29824;SDS011;16713;52.916;12.834;2023-03-30T07:40:10;12.95;;;6.93;;
29824;SDS011;16713;52.916;12.834;2023-03-30T07:42:38;16.10;;;7.93;;
29824;SDS011;16713;52.916;12.834;2023-03-30T07:45:05;10.80;;;7.57;;
29824;SDS011;16713;52.916;12.834;2023-03-30T07:47:33;10.73;;;7.78;;
29824;SDS011;16713;52.916;12.834;2023-03-30T07:49:59;11.57;;;6.78;;
29824;SDS011;16713;52.916;12.834;2023-03-30T07:52:26;9.80;;;6.68;;
29824;SDS011;16713;52.916;12.834;2023-03-30T07:54:52;12.43;;;6.80;;
29824;SDS011;16713;52.916;12.834;2023-03-30T07:57:22;8.77;;;6.03;;
29824;SDS011;16713;52.916;12.834;2023-03-30T07:59:49;10.63;;;5.97;;
29824;SDS011;16713;52.916;12.834;2023-03-30T08:02:16;8.50;;;5.72;;
29824;SDS011;16713;52.916;12.834;2023-03-30T08:04:43;8.10;;;5.40;;
29824;SDS011;16713;52.916;12.834;2023-03-30T08:07:10;8.48;;;6.35;;
29824;SDS011;16713;52.916;12.834;2023-03-30T08:09:37;7.45;;;5.97;;
29824;SDS011;16713;52.916;12.834;2023-03-30T08:12:05;9.73;;;5.55;;
29824;SDS011;16713;52.916;12.834;2023-03-30T08:14:31;11.15;;;5.63;;
29824;SDS011;16713;52.916;12.834;2023-03-30T08:16:58;10.73;;;6.72;;
29824;SDS011;16713;52.916;12.834;2023-03-30T08:19:24;11.27;;;6.00;;
29824;SDS011;16713;52.916;12.834;2023-03-30T08:21:53;13.23;;;7.75;;
29824;SDS011;16713;52.916;12.834;2023-03-30T08:24:22;10.63;;;6.95;;
29824;SDS011;16713;52.916;12.834;2023-03-30T08:26:48;13.30;;;8.52;;
29824;SDS011;16713;52.916;12.834;2023-03-30T08:29:15;17.52;;;7.43;;
29824;SDS011;16713;52.916;12.834;2023-03-30T08:31:42;11.98;;;8.05;;
29824;SDS011;16713;52.916;12.834;2023-03-30T08:34:08;8.77;;;6.40;;
29824;SDS011;16713;52.916;12.834;2023-03-30T08:36:35;10.45;;;6.65;;
29824;SDS011;16713;52.916;12.834;2023-03-30T08:39:02;9.52;;;6.13;;
29824;SDS011;16713;52.916;12.834;2023-03-30T08:46:50;10.60;;;5.80;;
29824;SDS011;16713;52.916;12.834;2023-03-30T08:49:18;9.52;;;5.93;;
29824;SDS011;16713;52.916;12.834;2023-03-30T08:51:46;9.13;;;5.60;;
29824;SDS011;16713;52.916;12.834;2023-03-30T08:54:17;11.32;;;5.82;;
29824;SDS011;16713;52.916;12.834;2023-03-30T08:56:59;9.40;;;6.03;;
29824;SDS011;16713;52.916;12.834;2023-03-30T08:59:37;12.35;;;7.05;;
29824;SDS011;16713;52.916;12.834;2023-03-30T09:09:55;10.07;;;5.57;;
29824;SDS011;16713;52.916;12.834;2023-03-30T09:12:39;12.10;;;5.90;;
29824;SDS011;16713;52.916;12.834;2023-03-30T09:20:42;10.82;;;6.13;;
29824;SDS011;16713;52.916;12.834;2023-03-30T09:23:12;14.57;;;5.45;;
29824;SDS011;16713;52.916;12.834;2023-03-30T09:28:33;10.48;;;4.70;;
29824;SDS011;16713;52.916;12.834;2023-03-30T09:31:03;8.48;;;5.43;;
29824;SDS011;16713;52.916;12.834;2023-03-30T09:38:58;7.50;;;3.88;;
29824;SDS011;16713;52.916;12.834;2023-03-30T09:44:12;8.07;;;3.83;;
29824;SDS011;16713;52.916;12.834;2023-03-30T09:46:46;33.58;;;21.80;;
29824;SDS011;16713;52.916;12.834;2023-03-30T09:49:15;11.95;;;4.30;;
29824;SDS011;16713;52.916;12.834;2023-03-30T09:51:53;8.32;;;4.20;;
29824;SDS011;16713;52.916;12.834;2023-03-30T09:54:34;11.13;;;3.65;;
29824;SDS011;16713;52.916;12.834;2023-03-30T09:57:02;11.82;;;3.40;;
29824;SDS011;16713;52.916;12.834;2023-03-30T09:59:32;6.32;;;3.50;;
29824;SDS011;16713;52.916;12.834;2023-03-30T10:02:34;9.88;;;3.20;;
29824;SDS011;16713;52.916;12.834;2023-03-30T10:04:57;8.52;;;3.00;;
29824;SDS011;16713;52.916;12.834;2023-03-30T10:07:27;6.75;;;3.00;;
29824;SDS011;16713;52.916;12.834;2023-03-30T10:09:54;5.90;;;3.55;;
29824;SDS011;16713;52.916;12.834;2023-03-30T10:12:23;7.47;;;3.45;;
29824;SDS011;16713;52.916;12.834;2023-03-30T10:14:54;10.20;;;3.63;;
29824;SDS011;16713;52.916;12.834;2023-03-30T10:17:25;6.97;;;3.88;;
29824;SDS011;16713;52.916;12.834;2023-03-30T10:19:53;13.60;;;6.25;;
29824;SDS011;16713;52.916;12.834;2023-03-30T10:22:50;19.90;;;10.50;;
29824;SDS011;16713;52.916;12.834;2023-03-30T10:25:18;8.25;;;3.28;;
29824;SDS011;16713;52.916;12.834;2023-03-30T10:27:49;7.43;;;3.53;;
29824;SDS011;16713;52.916;12.834;2023-03-30T10:30:20;9.27;;;3.78;;
29824;SDS011;16713;52.916;12.834;2023-03-30T10:32:51;6.03;;;2.85;;
29824;SDS011;16713;52.916;12.834;2023-03-30T10:35:20;7.88;;;3.13;;
29824;SDS011;16713;52.916;12.834;2023-03-30T10:37:51;7.63;;;2.78;;
29824;SDS011;16713;52.916;12.834;2023-03-30T10:42:53;7.28;;;2.80;;
29824;SDS011;16713;52.916;12.834;2023-03-30T10:45:36;14.68;;;3.40;;
29824;SDS011;16713;52.916;12.834;2023-03-30T10:51:09;5.50;;;2.58;;
29824;SDS011;16713;52.916;12.834;2023-03-30T10:56:18;8.80;;;3.47;;
29824;SDS011;16713;52.916;12.834;2023-03-30T11:04:42;7.00;;;3.38;;
29824;SDS011;16713;52.916;12.834;2023-03-30T11:07:16;11.52;;;3.53;;
29824;SDS011;16713;52.916;12.834;2023-03-30T11:09:45;7.05;;;3.00;;
29824;SDS011;16713;52.916;12.834;2023-03-30T11:12:19;6.82;;;2.88;;
29824;SDS011;16713;52.916;12.834;2023-03-30T11:18:02;9.48;;;2.50;;
29824;SDS011;16713;52.916;12.834;2023-03-30T11:20:45;7.82;;;3.28;;
29824;SDS011;16713;52.916;12.834;2023-03-30T11:23:19;8.57;;;2.90;;
29824;SDS011;16713;52.916;12.834;2023-03-30T11:25:59;4.95;;;3.03;;
29824;SDS011;16713;52.916;12.834;2023-03-30T11:31:31;8.38;;;3.95;;
29824;SDS011;16713;52.916;12.834;2023-03-30T11:34:17;5.55;;;2.65;;
29824;SDS011;16713;52.916;12.834;2023-03-30T11:39:37;7.70;;;2.90;;
29824;SDS011;16713;52.916;12.834;2023-03-30T11:42:27;4.88;;;3.35;;
29824;SDS011;16713;52.916;12.834;2023-03-30T11:44:56;5.65;;;2.90;;
29824;SDS011;16713;52.916;12.834;2023-03-30T11:47:27;8.30;;;2.72;;
29824;SDS011;16713;52.916;12.834;2023-03-30T11:55:26;8.70;;;2.97;;
29824;SDS011;16713;52.916;12.834;2023-03-30T12:00:48;9.75;;;3.47;;
29824;SDS011;16713;52.916;12.834;2023-03-30T12:13:48;7.40;;;2.88;;
29824;SDS011;16713;52.916;12.834;2023-03-30T12:16:24;10.82;;;3.38;;
29824;SDS011;16713;52.916;12.834;2023-03-30T12:22:34;8.90;;;3.70;;
29824;SDS011;16713;52.916;12.834;2023-03-30T12:27:58;11.27;;;3.33;;
29824;SDS011;16713;52.916;12.834;2023-03-30T12:30:41;8.00;;;3.00;;
29824;SDS011;16713;52.916;12.834;2023-03-30T12:33:35;9.82;;;3.47;;
29824;SDS011;16713;52.916;12.834;2023-03-30T12:36:21;8.02;;;2.80;;
29824;SDS011;16713;52.916;12.834;2023-03-30T12:38:53;10.23;;;3.20;;
29824;SDS011;16713;52.916;12.834;2023-03-30T12:41:24;9.75;;;4.72;;
29824;SDS011;16713;52.916;12.834;2023-03-30T12:43:59;6.97;;;3.33;;
29824;SDS011;16713;52.916;12.834;2023-03-30T12:46:35;11.07;;;3.42;;
29824;SDS011;16713;52.916;12.834;2023-03-30T12:52:09;13.23;;;4.65;;
29824;SDS011;16713;52.916;12.834;2023-03-30T13:05:15;5.68;;;2.00;;
29824;SDS011;16713;52.916;12.834;2023-03-30T13:07:45;5.72;;;2.00;;
29824;SDS011;16713;52.916;12.834;2023-03-30T13:12:57;5.05;;;1.95;;
29824;SDS011;16713;52.916;12.834;2023-03-30T13:20:35;4.70;;;1.67;;
29824;SDS011;16713;52.916;12.834;2023-03-30T13:33:52;4.93;;;1.48;;
29824;SDS011;16713;52.916;12.834;2023-03-30T13:36:28;3.80;;;1.40;;
29824;SDS011;16713;52.916;12.834;2023-03-30T13:39:02;2.70;;;1.58;;
29824;SDS011;16713;52.916;12.834;2023-03-30T13:41:47;3.30;;;1.58;;
29824;SDS011;16713;52.916;12.834;2023-03-30T13:44:35;2.67;;;1.55;;
29824;SDS011;16713;52.916;12.834;2023-03-30T13:47:15;3.83;;;1.65;;
29824;SDS011;16713;52.916;12.834;2023-03-30T13:49:58;4.20;;;1.70;;
29824;SDS011;16713;52.916;12.834;2023-03-30T13:52:33;5.57;;;1.70;;
29824;SDS011;16713;52.916;12.834;2023-03-30T13:55:04;3.05;;;1.40;;
29824;SDS011;16713;52.916;12.834;2023-03-30T13:57:39;4.13;;;1.52;;
29824;SDS011;16713;52.916;12.834;2023-03-30T14:00:15;2.05;;;1.40;;
29824;SDS011;16713;52.916;12.834;2023-03-30T14:02:53;2.78;;;1.60;;
29824;SDS011;16713;52.916;12.834;2023-03-30T14:05:21;2.35;;;2.00;;
29824;SDS011;16713;52.916;12.834;2023-03-30T14:07:54;6.80;;;2.50;;
29824;SDS011;16713;52.916;12.834;2023-03-30T14:10:22;4.85;;;2.70;;
29824;SDS011;16713;52.916;12.834;2023-03-30T14:12:51;4.32;;;2.97;;
29824;SDS011;16713;52.916;12.834;2023-03-30T14:15:26;5.72;;;3.50;;
29824;SDS011;16713;52.916;12.834;2023-03-30T14:18:05;5.80;;;3.50;;
29824;SDS011;16713;52.916;12.834;2023-03-30T14:23:04;8.88;;;6.28;;
29824;SDS011;16713;52.916;12.834;2023-03-30T14:25:36;5.82;;;3.38;;
29824;SDS011;16713;52.916;12.834;2023-03-30T14:28:11;6.45;;;3.80;;
29824;SDS011;16713;52.916;12.834;2023-03-30T14:30:49;5.25;;;3.42;;
29824;SDS011;16713;52.916;12.834;2023-03-30T14:33:16;6.88;;;3.30;;
29824;SDS011;16713;52.916;12.834;2023-03-30T14:35:44;5.85;;;3.22;;
29824;SDS011;16713;52.916;12.834;2023-03-30T14:40:49;6.72;;;3.40;;
29824;SDS011;16713;52.916;12.834;2023-03-30T14:43:18;8.15;;;3.72;;
29824;SDS011;16713;52.916;12.834;2023-03-30T14:45:52;6.25;;;3.60;;
29824;SDS011;16713;52.916;12.834;2023-03-30T14:50:48;4.93;;;3.60;;
29824;SDS011;16713;52.916;12.834;2023-03-30T14:53:17;12.13;;;4.45;;
29824;SDS011;16713;52.916;12.834;2023-03-30T14:55:49;7.38;;;4.25;;
29824;SDS011;16713;52.916;12.834;2023-03-30T14:58:17;5.82;;;3.95;;
29824;SDS011;16713;52.916;12.834;2023-03-30T15:00:44;8.27;;;4.13;;
29824;SDS011;16713;52.916;12.834;2023-03-30T15:03:11;6.05;;;4.22;;
29824;SDS011;16713;52.916;12.834;2023-03-30T15:06:01;10.32;;;4.05;;
29824;SDS011;16713;52.916;12.834;2023-03-30T15:08:31;6.90;;;3.80;;
29824;SDS011;16713;52.916;12.834;2023-03-30T15:11:05;6.45;;;3.50;;
29824;SDS011;16713;52.916;12.834;2023-03-30T15:13:36;8.00;;;3.78;;
29824;SDS011;16713;52.916;12.834;2023-03-30T15:16:06;9.27;;;4.65;;
29824;SDS011;16713;52.916;12.834;2023-03-30T15:18:37;8.80;;;4.63;;
29824;SDS011;16713;52.916;12.834;2023-03-30T15:21:03;12.35;;;4.88;;
29824;SDS011;16713;52.916;12.834;2023-03-30T15:23:34;6.32;;;4.50;;
29824;SDS011;16713;52.916;12.834;2023-03-30T15:26:06;8.27;;;4.75;;
29824;SDS011;16713;52.916;12.834;2023-03-30T15:28:34;6.18;;;4.38;;
29824;SDS011;16713;52.916;12.834;2023-03-30T15:31:09;7.65;;;4.65;;
29824;SDS011;16713;52.916;12.834;2023-03-30T15:34:13;7.50;;;5.03;;
29824;SDS011;16713;52.916;12.834;2023-03-30T15:36:39;7.47;;;3.13;;
29824;SDS011;16713;52.916;12.834;2023-03-30T15:39:23;5.43;;;2.65;;
29824;SDS011;16713;52.916;12.834;2023-03-30T15:44:23;8.05;;;3.40;;
29824;SDS011;16713;52.916;12.834;2023-03-30T15:46:50;4.07;;;1.98;;
29824;SDS011;16713;52.916;12.834;2023-03-30T15:49:21;5.00;;;1.58;;
29824;SDS011;16713;52.916;12.834;2023-03-30T15:51:55;7.57;;;2.10;;
29824;SDS011;16713;52.916;12.834;2023-03-30T15:57:11;4.15;;;2.03;;
29824;SDS011;16713;52.916;12.834;2023-03-30T16:00:04;6.82;;;2.00;;
29824;SDS011;16713;52.916;12.834;2023-03-30T16:02:38;7.22;;;2.20;;
29824;SDS011;16713;52.916;12.834;2023-03-30T16:05:18;4.82;;;1.77;;
29824;SDS011;16713;52.916;12.834;2023-03-30T16:07:47;6.00;;;2.30;;
29824;SDS011;16713;52.916;12.834;2023-03-30T16:10:18;10.60;;;2.03;;
29824;SDS011;16713;52.916;12.834;2023-03-30T16:12:52;5.90;;;1.95;;
29824;SDS011;16713;52.916;12.834;2023-03-30T16:15:22;8.45;;;2.42;;
29824;SDS011;16713;52.916;12.834;2023-03-30T16:17:50;8.25;;;2.28;;
29824;SDS011;16713;52.916;12.834;2023-03-30T16:20:18;9.02;;;2.30;;
29824;SDS011;16713;52.916;12.834;2023-03-30T16:22:46;5.55;;;1.95;;
29824;SDS011;16713;52.916;12.834;2023-03-30T16:25:14;7.88;;;1.98;;
29824;SDS011;16713;52.916;12.834;2023-03-30T16:27:42;11.30;;;2.33;;
29824;SDS011;16713;52.916;12.834;2023-03-30T16:30:13;9.70;;;2.17;;
29824;SDS011;16713;52.916;12.834;2023-03-30T16:32:41;8.65;;;2.15;;
29824;SDS011;16713;52.916;12.834;2023-03-30T16:35:08;10.50;;;2.90;;
29824;SDS011;16713;52.916;12.834;2023-03-30T16:37:34;8.98;;;2.45;;
29824;SDS011;16713;52.916;12.834;2023-03-30T16:40:01;7.15;;;3.40;;
29824;SDS011;16713;52.916;12.834;2023-03-30T16:42:35;8.02;;;3.10;;
29824;SDS011;16713;52.916;12.834;2023-03-30T16:45:01;6.18;;;2.75;;
29824;SDS011;16713;52.916;12.834;2023-03-30T16:47:29;9.00;;;2.40;;
29824;SDS011;16713;52.916;12.834;2023-03-30T16:49:55;11.05;;;2.75;;
29824;SDS011;16713;52.916;12.834;2023-03-30T16:52:21;12.10;;;3.03;;
29824;SDS011;16713;52.916;12.834;2023-03-30T16:54:48;7.85;;;2.42;;
29824;SDS011;16713;52.916;12.834;2023-03-30T16:57:14;8.48;;;3.58;;
29824;SDS011;16713;52.916;12.834;2023-03-30T16:59:41;10.07;;;2.70;;
29824;SDS011;16713;52.916;12.834;2023-03-30T17:02:09;14.32;;;3.28;;
29824;SDS011;16713;52.916;12.834;2023-03-30T17:04:42;13.05;;;2.88;;
29824;SDS011;16713;52.916;12.834;2023-03-30T17:07:10;8.60;;;2.90;;
29824;SDS011;16713;52.916;12.834;2023-03-30T17:09:36;5.50;;;2.72;;
29824;SDS011;16713;52.916;12.834;2023-03-30T17:12:03;7.78;;;2.22;;
29824;SDS011;16713;52.916;12.834;2023-03-30T17:14:29;8.20;;;2.55;;
29824;SDS011;16713;52.916;12.834;2023-03-30T17:16:56;10.25;;;2.50;;
29824;SDS011;16713;52.916;12.834;2023-03-30T17:19:24;5.65;;;3.17;;